Time;durP1;ratioP1;P1;durP2;ratioP2;P2;SDS_P1;SDS_P2;PMS_P1;PMS_P2;Temp;Humidity;BMP_temperature;BMP_pressure;BME280_temperature;BME280_humidity;BME280_pressure;Samples;Min_cycle;Max_cycle;Signal;HPM_P1;HPM_P2
2021/06/09 00:02:38;;;;;;;9.40;8.50;;;20.90;36.30;;;;;;10427150;28;20247;-74
2021/06/09 00:07:41;;;;;;;8.33;7.67;;;20.80;37.50;;;;;;10430426;28;20222;-74
2021/06/09 00:12:44;;;;;;;9.20;8.50;;;20.80;36.20;;;;;;10424058;28;20243;-73
2021/06/09 00:17:48;;;;;;;8.20;7.40;;;20.70;36.40;;;;;;10428511;28;20237;-73
2021/06/09 00:22:52;;;;;;;10.07;9.17;;;20.70;36.90;;;;;;10421511;28;20257;-73
2021/06/09 00:27:57;;;;;;;8.57;7.97;;;20.60;37.00;;;;;;10426255;28;20233;-73
2021/06/09 00:33:02;;;;;;;9.37;8.67;;;20.60;37.00;;;;;;10426772;28;20235;-74
2021/06/09 00:38:05;;;;;;;8.57;7.87;;;20.50;36.90;;;;;;10424954;28;20232;-74
2021/06/09 00:43:11;;;;;;;9.30;8.50;;;20.50;36.90;;;;;;10433634;28;20248;-74
2021/06/09 00:48:15;;;;;;;8.23;7.63;;;20.40;36.90;;;;;;10425977;28;20236;-73
2021/06/09 00:53:27;;;;;;;9.70;8.90;;;20.40;36.90;;;;;;10429183;28;20230;-74
2021/06/09 00:58:31;;;;;;;10.17;9.37;;;20.40;36.90;;;;;;10426967;28;20313;-73
2021/06/09 01:03:35;;;;;;;10.07;9.17;;;20.40;36.90;;;;;;10420183;28;20225;-74
2021/06/09 01:08:41;;;;;;;10.07;8.53;;;20.30;36.90;;;;;;10422315;28;20609;-73
2021/06/09 01:13:45;;;;;;;8.47;7.87;;;20.20;36.70;;;;;;10423601;28;20235;-73
2021/06/09 01:18:49;;;;;;;9.37;8.57;;;20.10;36.60;;;;;;10429208;28;20247;-73
2021/06/09 01:23:53;;;;;;;9.27;8.47;;;20.10;37.30;;;;;;10427530;28;20239;-73
2021/06/09 01:28:58;;;;;;;9.20;8.50;;;20.10;37.30;;;;;;10428007;28;20308;-74
2021/06/09 01:34:05;;;;;;;9.40;8.57;;;20.00;37.20;;;;;;10421993;28;20592;-75
2021/06/09 01:39:12;;;;;;;9.63;8.93;;;20.00;36.70;;;;;;10423641;28;20232;-74
2021/06/09 01:44:15;;;;;;;9.73;8.93;;;19.80;37.60;;;;;;10431560;28;20233;-73
2021/06/09 01:49:18;;;;;;;9.33;8.53;;;19.70;36.90;;;;;;10426365;28;20236;-74
2021/06/09 01:54:23;;;;;;;8.77;8.07;;;19.60;37.10;;;;;;10429175;28;20225;-74
2021/06/09 01:59:26;;;;;;;8.83;8.13;;;19.50;37.60;;;;;;10422540;28;20221;-73
2021/06/09 02:04:28;;;;;;;9.20;8.40;;;19.50;37.20;;;;;;10423215;28;20244;-73
2021/06/09 02:09:33;;;;;;;8.30;7.70;;;19.40;37.30;;;;;;10423210;28;20748;-73
2021/06/09 02:14:37;;;;;;;8.83;7.63;;;19.40;37.60;;;;;;10424595;28;20224;-73
2021/06/09 02:19:40;;;;;;;9.27;8.47;;;19.30;37.60;;;;;;10423077;28;20258;-74
2021/06/09 02:24:44;;;;;;;8.37;7.57;;;19.20;37.50;;;;;;10421548;28;20239;-73
2021/06/09 02:29:47;;;;;;;8.23;7.53;;;19.10;37.90;;;;;;10419870;28;20225;-73
2021/06/09 02:34:50;;;;;;;9.03;8.23;;;19.00;37.70;;;;;;10424669;28;20595;-73
2021/06/09 02:39:54;;;;;;;8.50;7.70;;;18.90;38.00;;;;;;10424014;28;20225;-73
2021/06/09 02:44:56;;;;;;;8.07;7.47;;;19.00;38.40;;;;;;10428252;28;20233;-74
2021/06/09 02:49:59;;;;;;;8.17;7.57;;;19.00;38.10;;;;;;10424236;28;20228;-74
2021/06/09 02:55:10;;;;;;;8.70;7.90;;;19.00;38.20;;;;;;10417848;28;20230;-74
2021/06/09 03:00:17;;;;;;;8.63;7.93;;;19.00;38.60;;;;;;10425956;28;20244;-74
2021/06/09 03:05:23;;;;;;;9.07;8.27;;;19.00;38.10;;;;;;10425813;28;20228;-73
2021/06/09 03:10:40;;;;;;;8.10;7.50;;;19.00;38.80;;;;;;10438230;28;20217;-74
2021/06/09 03:15:50;;;;;;;7.73;7.13;;;19.00;38.70;;;;;;10428271;28;20239;-73
2021/06/09 03:20:59;;;;;;;8.27;7.57;;;19.00;38.20;;;;;;10428974;28;20255;-74
2021/06/09 03:26:10;;;;;;;8.90;8.10;;;19.00;38.80;;;;;;10428112;28;20225;-75
2021/06/09 03:31:17;;;;;;;9.97;8.93;;;19.00;39.00;;;;;;10427217;28;20225;-74
2021/06/09 03:36:23;;;;;;;9.30;8.50;;;19.00;39.00;;;;;;10428627;28;20237;-74
2021/06/09 03:41:37;;;;;;;9.13;8.33;;;18.90;38.60;;;;;;10427291;28;20232;-74
2021/06/09 03:46:43;;;;;;;10.20;9.20;;;18.80;39.10;;;;;;10427896;28;20223;-74
2021/06/09 03:51:47;;;;;;;10.40;9.17;;;18.80;38.90;;;;;;10427915;28;20225;-74
2021/06/09 03:56:53;;;;;;;9.90;9.10;;;18.70;38.60;;;;;;10429030;28;20226;-73
2021/06/09 04:01:58;;;;;;;9.63;8.87;;;18.70;39.50;;;;;;10427979;28;20225;-73
2021/06/09 04:07:03;;;;;;;10.70;9.80;;;18.60;39.30;;;;;;10425802;28;20312;-75
2021/06/09 04:12:10;;;;;;;10.30;9.47;;;18.60;39.10;;;;;;10420269;28;20221;-74
2021/06/09 04:17:17;;;;;;;10.27;9.27;;;18.60;40.40;;;;;;10428259;28;20229;-74
2021/06/09 04:22:21;;;;;;;10.77;9.80;;;18.60;39.60;;;;;;10428581;28;20722;-73
2021/06/09 04:27:29;;;;;;;10.13;9.33;;;18.60;39.60;;;;;;10424948;28;20232;-74
2021/06/09 04:32:48;;;;;;;10.47;9.47;;;18.60;40.70;;;;;;10423280;28;20666;-74
2021/06/09 04:37:51;;;;;;;10.53;9.70;;;18.60;40.90;;;;;;10428213;28;20244;-74
2021/06/09 04:42:57;;;;;;;10.80;9.80;;;18.70;40.10;;;;;;10425648;28;20756;-74
2021/06/09 04:48:00;;;;;;;10.97;10.00;;;18.70;41.10;;;;;;10430491;28;20963;-76
2021/06/09 04:53:11;;;;;;;11.23;10.33;;;18.70;40.40;;;;;;10433920;28;20236;-74
2021/06/09 04:58:16;;;;;;;11.73;10.83;;;18.80;40.70;;;;;;10421039;28;20321;-74
2021/06/09 05:03:20;;;;;;;12.70;11.60;;;18.90;41.70;;;;;;10426773;28;20243;-74
2021/06/09 05:08:22;;;;;;;12.37;11.27;;;18.90;41.00;;;;;;10426773;28;20229;-74
2021/06/09 05:13:31;;;;;;;10.90;10.00;;;19.00;41.10;;;;;;10424421;28;20233;-74
2021/06/09 05:18:37;;;;;;;14.00;12.80;;;19.10;42.60;;;;;;10416436;28;20289;-79
2021/06/09 05:23:42;;;;;;;13.60;12.50;;;19.20;42.60;;;;;;10438176;28;20344;-78
2021/06/09 05:28:50;;;;;;;15.27;14.07;;;19.30;42.40;;;;;;10437293;28;20719;-80
2021/06/09 05:33:54;;;;;;;14.57;13.37;;;19.50;43.60;;;;;;10412551;28;20566;-80
2021/06/09 05:38:58;;;;;;;15.17;13.87;;;19.60;42.30;;;;;;10400940;28;20633;-76
2021/06/09 05:44:02;;;;;;;15.13;13.73;;;19.70;42.60;;;;;;10386805;28;20711;-76
2021/06/09 05:49:05;;;;;;;14.30;13.03;;;19.80;43.00;;;;;;10387345;28;20228;-78
2021/06/09 05:54:08;;;;;;;13.87;12.70;;;19.80;42.30;;;;;;10398618;28;20233;-77
2021/06/09 05:59:13;;;;;;;13.47;12.27;;;19.90;42.50;;;;;;10390220;28;20736;-75
2021/06/09 06:04:16;;;;;;;12.63;11.63;;;20.00;43.10;;;;;;10406693;28;20705;-74
2021/06/09 06:09:19;;;;;;;12.80;11.70;;;20.20;42.70;;;;;;10432138;28;20311;-74
2021/06/09 06:14:25;;;;;;;11.43;10.53;;;20.40;42.90;;;;;;10426819;28;20229;-74
2021/06/09 06:19:34;;;;;;;12.00;10.90;;;20.60;43.30;;;;;;10426637;28;20780;-74
2021/06/09 06:24:41;;;;;;;11.33;10.47;;;20.80;43.30;;;;;;10423222;28;20237;-74
2021/06/09 06:29:46;;;;;;;11.50;10.40;;;21.00;42.90;;;;;;10423130;28;20225;-75
2021/06/09 06:34:51;;;;;;;11.50;10.50;;;21.20;42.80;;;;;;10422527;28;20217;-75
2021/06/09 06:39:55;;;;;;;10.53;9.63;;;21.40;42.00;;;;;;10433517;28;20257;-74
2021/06/09 06:45:00;;;;;;;11.30;10.40;;;21.60;41.90;;;;;;10428499;28;20233;-75
2021/06/09 06:50:04;;;;;;;10.93;10.03;;;21.80;41.80;;;;;;10420246;28;20225;-75
2021/06/09 06:55:08;;;;;;;11.90;10.70;;;22.00;41.90;;;;;;10435288;28;20233;-75
2021/06/09 07:00:16;;;;;;;12.60;11.60;;;22.20;41.80;;;;;;10433599;28;20233;-74
2021/06/09 07:05:19;;;;;;;11.97;10.87;;;22.50;42.60;;;;;;10426672;28;20243;-75
2021/06/09 07:10:23;;;;;;;10.73;9.57;;;22.70;41.80;;;;;;10433814;28;20221;-74
2021/06/09 07:15:29;;;;;;;10.67;9.73;;;22.90;41.50;;;;;;10432271;28;20807;-74
2021/06/09 07:20:32;;;;;;;11.07;10.27;;;23.10;41.10;;;;;;10427834;28;20229;-74
2021/06/09 07:25:35;;;;;;;10.27;9.47;;;23.40;40.90;;;;;;10426209;28;20582;-74
2021/06/09 07:30:41;;;;;;;10.23;9.43;;;23.60;40.40;;;;;;10429197;28;20260;-74
2021/06/09 07:35:44;;;;;;;10.97;10.10;;;23.70;39.80;;;;;;10427150;28;20217;-74
2021/06/09 07:40:53;;;;;;;11.93;10.97;;;23.90;39.90;;;;;;10435892;28;20241;-74
2021/06/09 07:45:59;;;;;;;12.07;11.07;;;24.10;39.70;;;;;;10430181;28;20217;-74
2021/06/09 07:51:05;;;;;;;11.00;10.10;;;24.30;39.60;;;;;;10423057;28;20579;-74
2021/06/09 07:56:11;;;;;;;10.73;9.93;;;24.50;39.60;;;;;;10423013;28;20233;-72
2021/06/09 08:01:15;;;;;;;10.93;10.10;;;24.70;39.70;;;;;;10426510;28;20225;-75
2021/06/09 08:06:18;;;;;;;11.17;10.27;;;24.80;38.60;;;;;;10424849;28;20237;-75
2021/06/09 08:11:21;;;;;;;9.83;9.03;;;25.00;38.70;;;;;;10426133;28;20243;-75
2021/06/09 08:16:27;;;;;;;10.30;9.30;;;25.20;38.10;;;;;;10421063;28;20244;-75
2021/06/09 08:21:30;;;;;;;9.23;8.50;;;25.40;36.70;;;;;;10428968;28;20236;-75
2021/06/09 08:26:33;;;;;;;9.27;8.60;;;25.70;37.00;;;;;;10428382;28;20888;-75
2021/06/09 08:31:37;;;;;;;9.07;8.37;;;25.80;36.90;;;;;;10424680;28;20318;-75
2021/06/09 08:36:44;;;;;;;9.67;8.90;;;26.00;36.00;;;;;;10426519;28;20236;-75
2021/06/09 08:41:48;;;;;;;10.57;9.77;;;26.30;36.70;;;;;;10419375;28;20251;-73
2021/06/09 08:46:54;;;;;;;10.00;9.27;;;26.40;36.10;;;;;;10425371;28;20234;-73
2021/06/09 08:51:57;;;;;;;9.53;8.83;;;26.70;35.60;;;;;;10426839;28;20839;-75
2021/06/09 08:57:00;;;;;;;9.73;9.03;;;26.90;36.00;;;;;;10425095;28;20228;-75
2021/06/09 09:02:04;;;;;;;9.93;9.13;;;27.00;35.60;;;;;;10424499;28;20233;-75
2021/06/09 09:07:08;;;;;;;9.70;9.00;;;27.30;34.30;;;;;;10424664;28;20234;-71
2021/06/09 09:12:11;;;;;;;9.97;9.27;;;27.50;34.20;;;;;;10428088;28;20797;-71
2021/06/09 09:17:16;;;;;;;9.47;8.77;;;27.60;34.20;;;;;;10427864;28;20237;-75
2021/06/09 09:22:31;;;;;;;9.43;8.57;;;27.70;33.60;;;;;;10431474;28;20240;-75
2021/06/09 09:27:34;;;;;;;9.50;8.80;;;27.80;33.00;;;;;;10423705;28;20749;-73
2021/06/09 09:32:57;;;;;;;9.87;9.10;;;27.80;33.30;;;;;;10419174;28;20237;-73
2021/06/09 09:38:17;;;;;;;9.60;8.93;;;27.90;32.90;;;;;;10424066;28;20232;-72
2021/06/09 09:43:20;;;;;;;9.17;8.37;;;27.90;32.20;;;;;;10424353;28;20220;-73
2021/06/09 09:48:24;;;;;;;10.23;9.40;;;28.00;33.20;;;;;;10429455;28;20236;-72
2021/06/09 09:53:30;;;;;;;9.43;8.80;;;28.20;31.80;;;;;;10427372;28;20229;-73
2021/06/09 09:58:35;;;;;;;10.77;9.27;;;28.30;31.90;;;;;;10421971;28;20229;-73
2021/06/09 10:03:41;;;;;;;8.33;7.73;;;28.50;31.70;;;;;;10426058;28;20233;-72
2021/06/09 10:08:44;;;;;;;9.73;8.93;;;28.60;30.80;;;;;;10423445;28;20767;-73
2021/06/09 10:13:47;;;;;;;9.23;8.50;;;28.80;31.50;;;;;;10433946;28;20231;-73
2021/06/09 10:19:00;;;;;;;7.50;7.00;;;28.90;30.80;;;;;;10437180;28;20511;-72
2021/06/09 10:24:07;;;;;;;8.30;7.70;;;29.00;29.40;;;;;;10435890;28;20681;-73
2021/06/09 10:29:13;;;;;;;7.97;7.37;;;29.20;29.10;;;;;;10430187;28;20775;-73
2021/06/09 10:34:18;;;;;;;7.87;7.37;;;29.30;29.50;;;;;;10436354;28;20239;-73
2021/06/09 10:39:23;;;;;;;8.33;7.63;;;29.40;28.80;;;;;;10437310;28;20282;-72
2021/06/09 10:44:32;;;;;;;7.67;7.17;;;29.50;29.10;;;;;;10439645;28;20251;-72
2021/06/09 10:49:38;;;;;;;7.73;7.17;;;29.60;29.20;;;;;;10435161;28;20638;-73
2021/06/09 10:54:41;;;;;;;7.90;7.20;;;29.80;28.70;;;;;;10432602;28;20247;-73
2021/06/09 10:59:44;;;;;;;7.47;6.90;;;29.90;28.60;;;;;;10438190;28;20257;-73
2021/06/09 11:04:50;;;;;;;7.30;6.70;;;30.00;27.90;;;;;;10434047;28;20248;-74
2021/06/09 11:09:53;;;;;;;7.93;7.33;;;30.00;26.80;;;;;;10438058;28;20224;-76
2021/06/09 11:14:57;;;;;;;7.40;6.90;;;30.10;27.50;;;;;;10437861;28;20227;-74
2021/06/09 11:20:13;;;;;;;7.50;6.97;;;30.30;27.20;;;;;;10431492;28;20229;-74
2021/06/09 11:25:20;;;;;;;8.07;7.47;;;30.40;26.30;;;;;;10429203;28;20233;-76
2021/06/09 11:30:56;;;;;;;8.17;7.57;;;30.50;26.20;;;;;;10407637;23;20229;-77
2021/06/09 11:36:01;;;;;;;9.67;8.80;;;30.50;26.50;;;;;;10398566;28;20234;-78
2021/06/09 11:41:07;;;;;;;8.60;7.93;;;30.40;26.30;;;;;;10352741;23;20229;-72
2021/06/09 11:46:12;;;;;;;9.97;7.90;;;30.20;26.30;;;;;;10400959;28;20229;-74
2021/06/09 11:51:26;;;;;;;8.80;8.20;;;29.80;27.00;;;;;;10453911;23;20343;-74
2021/06/09 11:56:31;;;;;;;8.83;8.03;;;29.30;27.50;;;;;;10475837;28;20256;-75
2021/06/09 12:01:42;;;;;;;8.40;7.80;;;28.80;28.20;;;;;;10458736;28;20753;-74
2021/06/09 12:06:49;;;;;;;8.93;8.23;;;28.40;28.00;;;;;;10440842;28;20963;-77
2021/06/09 12:11:54;;;;;;;8.53;7.73;;;28.00;28.40;;;;;;10440446;28;20256;-76
2021/06/09 12:17:14;;;;;;;7.63;7.13;;;27.70;28.70;;;;;;10444359;28;20315;-77
2021/06/09 12:22:20;;;;;;;7.03;6.47;;;27.30;28.70;;;;;;10447443;28;20232;-74
2021/06/09 12:27:23;;;;;;;7.77;7.07;;;27.00;28.00;;;;;;10441176;28;20236;-73
2021/06/09 12:32:27;;;;;;;7.53;7.03;;;26.90;28.50;;;;;;10440054;28;20248;-75
2021/06/09 12:37:33;;;;;;;7.33;6.73;;;26.70;28.70;;;;;;10437055;28;20811;-74
2021/06/09 12:42:37;;;;;;;7.70;7.10;;;26.60;28.80;;;;;;10439912;28;20749;-78
2021/06/09 12:47:42;;;;;;;6.93;6.43;;;26.50;29.10;;;;;;10435250;28;20231;-77
2021/06/09 12:52:48;;;;;;;8.10;7.50;;;26.30;29.40;;;;;;10431527;28;20235;-76
2021/06/09 12:57:51;;;;;;;7.70;7.00;;;26.30;29.40;;;;;;10440468;28;20225;-77
2021/06/09 13:03:16;;;;;;;7.80;7.30;;;26.20;29.30;;;;;;10444481;28;20225;-77
2021/06/09 13:08:22;;;;;;;7.73;7.10;;;26.00;29.60;;;;;;10435608;28;20236;-77
2021/06/09 13:13:25;;;;;;;7.37;6.80;;;26.00;29.80;;;;;;10439426;28;20235;-78
2021/06/09 13:18:51;;;;;;;7.23;6.73;;;25.90;29.60;;;;;;10443102;28;20236;-78
2021/06/09 13:24:00;;;;;;;7.27;6.77;;;25.70;29.90;;;;;;10439311;28;20606;-73
2021/06/09 13:29:15;;;;;;;7.00;6.50;;;25.70;31.10;;;;;;10434778;28;20295;-75
2021/06/09 13:34:21;;;;;;;7.87;7.27;;;25.60;31.30;;;;;;10430809;28;20228;-75
2021/06/09 13:39:26;;;;;;;8.80;8.10;;;25.70;31.60;;;;;;10438096;28;20311;-80
2021/06/09 13:44:35;;;;;;;9.40;8.60;;;25.70;31.30;;;;;;10430909;28;21077;-73
2021/06/09 13:49:41;;;;;;;9.67;8.90;;;25.60;31.60;;;;;;10434013;28;20307;-73
2021/06/09 13:54:45;;;;;;;9.07;8.47;;;25.50;31.80;;;;;;10431339;28;20225;-74
2021/06/09 13:59:51;;;;;;;10.30;9.50;;;25.40;32.40;;;;;;10444802;28;20229;-78
2021/06/09 14:05:04;;;;;;;10.43;9.63;;;25.20;33.10;;;;;;10444809;28;20298;-79
2021/06/09 14:10:24;;;;;;;10.37;9.67;;;25.10;32.80;;;;;;10448742;28;21230;-79
2021/06/09 14:15:28;;;;;;;10.07;9.17;;;25.00;33.90;;;;;;10443727;28;20252;-80
2021/06/09 14:20:34;;;;;;;9.17;8.53;;;25.00;33.70;;;;;;10446468;28;20640;-79
2021/06/09 14:25:40;;;;;;;8.00;7.50;;;25.00;34.60;;;;;;10444142;28;20738;-78
2021/06/09 14:30:45;;;;;;;9.10;8.40;;;25.00;34.20;;;;;;10445676;28;20239;-78
2021/06/09 14:35:54;;;;;;;8.47;7.87;;;25.10;33.80;;;;;;10436576;28;20221;-80
2021/06/09 14:41:00;;;;;;;8.60;7.90;;;25.20;34.50;;;;;;10435454;28;20230;-75
2021/06/09 14:46:12;;;;;;;7.60;7.07;;;25.20;34.10;;;;;;10429637;28;20689;-75
2021/06/09 14:51:20;;;;;;;6.90;6.40;;;25.30;33.80;;;;;;10436501;28;20233;-75
2021/06/09 14:56:25;;;;;;;6.83;6.33;;;25.40;33.20;;;;;;10436421;28;20232;-77
2021/06/09 15:01:28;;;;;;;6.80;6.00;;;25.50;33.20;;;;;;10442437;28;20229;-77
2021/06/09 15:06:31;;;;;;;6.87;6.37;;;25.70;33.20;;;;;;10447421;28;20241;-76
2021/06/09 15:11:36;;;;;;;6.43;5.93;;;25.70;33.00;;;;;;10438657;28;20233;-77
2021/06/09 15:16:38;;;;;;;5.60;5.30;;;25.80;33.30;;;;;;10433539;28;20243;-74
2021/06/09 15:21:41;;;;;;;5.00;4.70;;;25.90;32.70;;;;;;10435771;28;20781;-74
2021/06/09 15:26:45;;;;;;;4.80;4.50;;;26.00;32.10;;;;;;10438979;28;20229;-71
2021/06/09 15:31:48;;;;;;;3.80;3.60;;;26.20;31.80;;;;;;10438206;28;20747;-74
2021/06/09 15:36:51;;;;;;;3.40;3.20;;;26.30;30.30;;;;;;10439906;28;20232;-74
2021/06/09 15:41:56;;;;;;;4.30;4.00;;;26.40;30.00;;;;;;10439556;28;20240;-74
2021/06/09 15:46:59;;;;;;;5.33;5.03;;;26.50;30.50;;;;;;10442126;28;20233;-74
2021/06/09 15:52:02;;;;;;;5.87;5.47;;;26.50;30.90;;;;;;10433455;28;20255;-75
2021/06/09 15:57:07;;;;;;;6.90;6.40;;;26.60;31.10;;;;;;10436750;28;20225;-74
2021/06/09 16:02:10;;;;;;;6.83;6.27;;;26.60;31.30;;;;;;10430399;28;20245;-75
2021/06/09 16:07:12;;;;;;;6.97;6.37;;;26.60;31.70;;;;;;10441846;28;20233;-74
2021/06/09 16:12:17;;;;;;;7.10;6.37;;;26.60;32.00;;;;;;10482670;23;20248;-79
2021/06/09 16:17:19;;;;;;;7.13;6.53;;;26.50;32.10;;;;;;10431062;28;20225;-78
2021/06/09 16:22:22;;;;;;;7.10;6.50;;;26.40;32.40;;;;;;10433172;28;20247;-78
2021/06/09 16:27:27;;;;;;;7.53;6.93;;;26.40;32.90;;;;;;10424250;28;20232;-78
2021/06/09 16:32:29;;;;;;;8.53;7.90;;;26.30;33.00;;;;;;10435772;28;20240;-78
2021/06/09 16:37:32;;;;;;;7.90;7.30;;;26.10;33.10;;;;;;10434648;28;20283;-77
2021/06/09 16:42:36;;;;;;;8.47;7.77;;;26.00;33.30;;;;;;10427238;28;20225;-76
2021/06/09 16:47:39;;;;;;;7.37;6.87;;;25.90;33.70;;;;;;10430565;28;20235;-76
2021/06/09 16:52:43;;;;;;;7.50;7.00;;;25.90;33.60;;;;;;10424981;28;20233;-76
2021/06/09 17:03:08;;;;;;;8.07;7.37;;;25.70;34.10;;;;;;10435186;28;20233;-76
2021/06/09 17:08:11;;;;;;;7.90;7.20;;;25.70;33.70;;;;;;10433694;28;20229;-76
2021/06/09 17:13:17;;;;;;;8.10;7.60;;;25.60;33.90;;;;;;10427918;28;20233;-75
2021/06/09 17:18:20;;;;;;;8.53;7.90;;;25.50;34.60;;;;;;10426285;28;20244;-76
2021/06/09 17:23:23;;;;;;;9.33;8.73;;;25.50;34.60;;;;;;10423898;28;20229;-75
2021/06/09 17:28:30;;;;;;;9.67;8.97;;;25.40;35.10;;;;;;10422606;28;20719;-75
2021/06/09 17:33:33;;;;;;;10.00;9.10;;;25.20;36.00;;;;;;10431316;28;20709;-75
2021/06/09 17:38:36;;;;;;;10.00;9.30;;;25.10;35.70;;;;;;10435051;28;20233;-74
2021/06/09 17:43:44;;;;;;;11.10;10.30;;;25.00;35.60;;;;;;10427750;28;20279;-75
2021/06/09 17:48:48;;;;;;;11.70;10.80;;;24.90;36.50;;;;;;10422880;28;20237;-74
2021/06/09 17:53:51;;;;;;;11.00;10.03;;;24.90;36.30;;;;;;10422966;28;20228;-74
2021/06/09 17:59:00;;;;;;;11.20;10.40;;;24.90;36.70;;;;;;10427920;28;20233;-75
2021/06/09 18:04:03;;;;;;;11.43;10.53;;;24.90;37.30;;;;;;10410068;28;20236;-76
2021/06/09 18:09:07;;;;;;;11.80;10.90;;;24.90;36.90;;;;;;10427814;28;20221;-76
2021/06/09 18:14:11;;;;;;;10.90;10.10;;;24.90;36.90;;;;;;10437895;28;20235;-76
2021/06/09 18:19:14;;;;;;;12.33;11.43;;;24.90;37.40;;;;;;10434400;28;20248;-76
2021/06/09 18:24:21;;;;;;;12.03;11.13;;;25.00;37.00;;;;;;10432689;28;20317;-75
2021/06/09 18:29:26;;;;;;;12.27;11.27;;;25.00;37.00;;;;;;10433214;28;20600;-75
2021/06/09 18:34:28;;;;;;;11.63;10.70;;;24.90;37.00;;;;;;10434539;28;20241;-76
2021/06/09 18:39:31;;;;;;;12.47;11.47;;;24.90;36.80;;;;;;10439926;28;20233;-80
2021/06/09 18:44:36;;;;;;;11.57;10.73;;;24.90;37.20;;;;;;10437624;28;20236;-80
2021/06/09 18:49:39;;;;;;;12.37;11.37;;;24.80;37.40;;;;;;10440453;28;20239;-80
2021/06/09 18:54:42;;;;;;;11.83;11.03;;;24.80;37.20;;;;;;10427605;28;20600;-79
2021/06/09 18:59:47;;;;;;;11.67;10.77;;;24.80;37.20;;;;;;10433676;28;20228;-80
2021/06/09 19:04:50;;;;;;;12.63;11.70;;;24.80;37.60;;;;;;10429182;28;20233;-79
2021/06/09 19:09:53;;;;;;;12.60;11.40;;;24.80;37.40;;;;;;10433192;28;20232;-79
2021/06/09 19:14:57;;;;;;;11.20;10.40;;;24.70;37.30;;;;;;10438962;28;20243;-80
2021/06/09 19:20:01;;;;;;;11.90;10.90;;;24.70;37.60;;;;;;10432093;28;20217;-79
2021/06/09 19:25:06;;;;;;;11.53;10.63;;;24.60;37.50;;;;;;10431112;28;20901;-74
2021/06/09 19:30:15;;;;;;;9.77;8.97;;;24.50;37.60;;;;;;10425009;28;20733;-74
2021/06/09 19:35:18;;;;;;;11.23;10.33;;;24.50;37.70;;;;;;10424271;28;20230;-78
2021/06/09 19:40:22;;;;;;;9.90;9.10;;;24.40;37.60;;;;;;10421570;28;21837;-74
2021/06/09 19:45:26;;;;;;;12.60;11.50;;;24.30;37.60;;;;;;10425847;28;20236;-76
2021/06/09 19:50:29;;;;;;;11.47;10.57;;;24.20;38.10;;;;;;10421281;28;20241;-77
2021/06/09 19:55:32;;;;;;;12.13;11.13;;;24.20;37.80;;;;;;10430114;28;20324;-77
2021/06/09 20:00:36;;;;;;;11.70;10.80;;;24.10;38.00;;;;;;10420238;28;20248;-77
2021/06/09 20:05:39;;;;;;;12.97;11.87;;;24.00;38.40;;;;;;10430447;28;20260;-77
2021/06/09 20:10:42;;;;;;;11.10;10.20;;;24.00;38.10;;;;;;10422864;28;20762;-78
2021/06/09 20:15:46;;;;;;;12.40;10.90;;;23.90;37.80;;;;;;10424924;28;20228;-78
2021/06/09 20:20:49;;;;;;;12.20;11.23;;;23.80;38.40;;;;;;10423549;28;20244;-77
2021/06/09 20:31:15;;;;;;;11.20;10.20;;;23.60;38.30;;;;;;10421954;28;20228;-77
2021/06/09 20:36:19;;;;;;;11.13;10.30;;;23.50;38.70;;;;;;10426564;28;20233;-78
2021/06/09 20:41:22;;;;;;;11.87;10.87;;;23.50;38.80;;;;;;10437564;28;20248;-76
2021/06/09 20:46:26;;;;;;;12.30;11.30;;;23.40;38.40;;;;;;10429769;28;20727;-76
2021/06/09 20:51:29;;;;;;;11.73;10.83;;;23.30;39.40;;;;;;10432817;28;20233;-74
2021/06/09 20:56:32;;;;;;;11.70;10.70;;;23.30;38.70;;;;;;10438048;28;20233;-75
2021/06/09 21:01:37;;;;;;;12.40;11.43;;;23.20;38.80;;;;;;10433688;28;20237;-77
2021/06/09 21:06:40;;;;;;;11.80;10.77;;;23.10;39.20;;;;;;10436820;28;20312;-73
2021/06/09 21:11:43;;;;;;;12.23;11.23;;;22.90;39.10;;;;;;10433342;28;20226;-78
2021/06/09 21:16:48;;;;;;;10.10;9.33;;;22.80;39.00;;;;;;10433048;28;20235;-75
2021/06/09 21:21:51;;;;;;;11.60;10.50;;;22.70;38.90;;;;;;10431696;28;20259;-78
2021/06/09 21:26:53;;;;;;;11.90;10.70;;;22.70;38.90;;;;;;10429977;28;20221;-75
2021/06/09 21:31:58;;;;;;;10.93;10.03;;;22.70;38.90;;;;;;10427979;28;20332;-73
2021/06/09 21:37:00;;;;;;;12.03;11.13;;;22.50;39.10;;;;;;10430231;28;20225;-73
2021/06/09 21:42:05;;;;;;;13.27;10.93;;;22.40;38.90;;;;;;10431929;28;20217;-76
2021/06/09 21:47:09;;;;;;;10.37;9.57;;;22.30;39.30;;;;;;10436295;28;20240;-78
2021/06/09 21:52:12;;;;;;;11.30;10.40;;;22.30;39.40;;;;;;10427031;28;20236;-77
2021/06/09 21:57:14;;;;;;;9.97;9.27;;;22.30;39.10;;;;;;10432488;28;20236;-77
2021/06/09 22:02:19;;;;;;;11.60;10.30;;;22.30;38.90;;;;;;10426090;28;20614;-75
2021/06/09 22:07:22;;;;;;;10.57;9.67;;;22.20;39.40;;;;;;10426398;28;20323;-74
2021/06/09 22:12:24;;;;;;;10.33;9.43;;;22.20;39.60;;;;;;10428482;28;20237;-74
2021/06/09 22:17:28;;;;;;;10.97;10.17;;;22.20;38.90;;;;;;10431959;28;20236;-75
2021/06/09 22:22:31;;;;;;;9.73;9.03;;;22.10;39.20;;;;;;10428846;28;20244;-75
2021/06/09 22:27:34;;;;;;;9.87;9.07;;;22.00;38.80;;;;;;10430961;28;20224;-75
2021/06/09 22:32:40;;;;;;;10.77;9.87;;;22.00;39.10;;;;;;10432115;28;20229;-75
2021/06/09 22:37:43;;;;;;;10.60;9.80;;;21.90;39.50;;;;;;10432473;28;20708;-75
2021/06/09 22:42:46;;;;;;;10.90;9.90;;;21.90;39.20;;;;;;10429200;28;20236;-75
2021/06/09 22:47:50;;;;;;;10.37;9.47;;;21.80;39.10;;;;;;10426173;28;20236;-75
2021/06/09 22:52:54;;;;;;;11.10;10.00;;;21.70;39.40;;;;;;10421472;28;20589;-75
2021/06/09 22:57:56;;;;;;;10.70;9.80;;;21.70;39.20;;;;;;10433748;28;20751;-75
2021/06/09 23:03:00;;;;;;;11.73;10.63;;;21.60;39.20;;;;;;10432189;28;20233;-75
2021/06/09 23:08:04;;;;;;;10.57;9.77;;;21.50;39.40;;;;;;10432388;28;20585;-75
2021/06/09 23:13:07;;;;;;;10.40;9.63;;;21.40;39.30;;;;;;10422615;28;20229;-75
2021/06/09 23:18:11;;;;;;;10.83;10.00;;;21.40;40.20;;;;;;10419466;28;20241;-75
2021/06/09 23:23:14;;;;;;;9.40;8.70;;;21.30;40.00;;;;;;10425338;28;20256;-75
2021/06/09 23:28:17;;;;;;;10.40;9.60;;;21.30;39.60;;;;;;10433002;28;20233;-75
2021/06/09 23:33:21;;;;;;;8.87;8.27;;;21.20;39.70;;;;;;10425656;28;20244;-75
2021/06/09 23:38:24;;;;;;;10.57;9.63;;;21.20;39.90;;;;;;10432044;28;20233;-75
2021/06/09 23:43:27;;;;;;;9.53;8.83;;;21.20;39.80;;;;;;10426600;28;20661;-75
2021/06/09 23:48:33;;;;;;;9.17;8.47;;;21.10;39.90;;;;;;10428653;28;20229;-75
2021/06/09 23:53:36;;;;;;;11.20;10.20;;;21.10;40.20;;;;;;10425064;28;20225;-75
2021/06/09 23:58:38;;;;;;;9.10;8.30;;;21.00;40.00;;;;;;10425332;28;20308;-75
